• Join FlightAware (Why Join?)
  • Login
  • US Flag 
12:18AM EDT


 

Airport Tracker/Info


-or-


 

Live Flight TrackerFlight Track Log ✈ N877PM ✈ 06-Oct-2013 ✈ KAPF - KGSO

Flight Track Log - Related Links

Times and Time Zones

All times are in EDT time to prevent confusion due to time zone crossing. See the N877PM flight status page for this flight to view local times or setup timezone preferences in your user account.

Time Position Orientation Groundspeed Altitude Reporting Facility
EDT Latitude Longitude Course Direction KTS MPH feet Rate Location/Type
05:01PM 26.1883 -81.8781 350° North 193 222 5,800  Level Miami Center
05:02PM 26.2389 -81.8708 North 188 216 7,700 1,800 Climbing Miami Center
05:03PM 26.2933 -81.8617 North 188 216 9,500 1,740 Climbing Miami Center
05:04PM 26.3481 -81.8522 North 194 223 11,200 1,560 Climbing Miami Center
05:05PM 26.6550 -81.6915 346° North  Level Estimated
05:05PM 26.4044 -81.8453 North 199 229 12,700  Level Miami Center
05:06PM 26.7383 -81.7085 350° North  Level FlightAware Approximate
05:06PM 26.4508 -81.8358 10° North 199 229 12,700  Level Miami Center
05:07PM 26.5158 -81.8269 North 336 387 15,300 1,980 Climbing Miami Center
05:08PM 26.5789 -81.8133 11° North 282 325 16,700 840 Climbing Miami Center
05:09PM 26.6439 -81.8044 North 247 284 17,000 120 Climbing Miami Center
05:10PM 26.7258 -81.7939 North 255 293 17,000 180 Level Miami Center
05:11PM 26.8222 -81.7769 North 303 349 17,400 900 Climbing Miami Center
05:12PM 26.8936 -81.7661 North 304 350 18,900 1,500 Climbing Miami Center
05:13PM 26.9650 -81.7550 North 280 322 20,400 1,260 Climbing Miami Center
05:14PM 27.0425 -81.7492 North 254 292 21,500 1,200 Climbing Miami Center
05:15PM 27.1106 -81.7731 343° North 247 284 22,800 1,140 Climbing Miami Center
05:16PM 27.1767 -81.7944 344° North 252 290 23,800 900 Climbing Miami Center
05:17PM 27.2431 -81.8042 353° North 252 290 24,700 960 Climbing Miami Center
05:18PM 27.3142 -81.7978 North 257 296 25,800 1,200 Climbing Miami Center
05:19PM 27.3917 -81.7894 North 257 296 27,100 1,080 Climbing Miami Center
05:20PM 27.4650 -81.7833 North 257 296 28,000 960 Climbing Miami Center
05:21PM 27.5361 -81.7769 North 257 296 29,100 960 Climbing Miami Center
05:22PM 27.5989 -81.7703 North 257 296 30,000 1,020 Climbing Miami Center
05:23PM 27.6744 -81.7642 North 252 290 31,200 960 Climbing Miami Center
05:24PM 27.7392 -81.7578 North 247 284 32,000 720 Climbing Miami Center
05:25PM 27.8064 -81.7511 North 234 269 32,700 600 Climbing Miami Center
05:26PM 27.8647 -81.7467 North 234 269 33,200 600 Climbing Miami Center
05:27PM 27.9275 -81.7422 North 234 269 34,000 660 Climbing Miami Center
05:28PM 27.9925 -81.7356 North 234 269 34,600 600 Climbing Miami Center
05:29PM 28.0575 -81.7292 North 234 269 35,200 600 Climbing Miami Center
05:30PM 28.1203 -81.7247 North 234 269 35,800 540 Climbing Miami Center
05:31PM 28.1872 -81.7181 North 234 269 36,300 480 Climbing Miami Center
05:32PM 28.2561 -81.7117 North 234 269 36,800 360 Climbing Miami Center
05:33PM 28.3072 -81.7044 North 234 269 37,000 60 Climbing Jacksonville Center
05:34PM 28.3803 -81.6964 North 252 290 37,000  Level Jacksonville Center
05:35PM 28.4636 -81.6953 North 265 305 37,000  Level Jacksonville Center
05:36PM 28.5469 -81.6850 North 279 321 37,000  Level Jacksonville Center
05:37PM 28.6325 -81.6769 North 291 335 37,000  Level Jacksonville Center
05:38PM 28.7181 -81.6686 North 298 343 37,000  Level Jacksonville Center
05:39PM 28.8056 -81.6606 North 309 356 37,000  Level Jacksonville Center
05:40PM 28.8931 -81.6522 North 309 356 37,000  Level Jacksonville Center
05:41PM 28.9786 -81.6442 North 309 356 37,000  Level Jacksonville Center
05:42PM 29.0661 -81.6358 North 309 356 37,000  Level Jacksonville Center
05:43PM 29.1558 -81.6275 North 309 356 37,000  Level Jacksonville Center
05:44PM 29.2331 -81.6194 North 310 357 37,000  Level Jacksonville Center
05:45PM 29.3269 -81.6086 North 315 362 37,000  Level Jacksonville Center
05:46PM 29.4167 -81.6003 North 320 368 37,000  Level Jacksonville Center
05:47PM 29.5103 -81.5919 North 328 377 37,000  Level Jacksonville Center
05:48PM 29.6000 -81.5836 North 328 377 37,000  Level Jacksonville Center
05:49PM 29.6897 -81.5753 North 328 377 37,000  Level Jacksonville Center
05:50PM 29.7794 -81.5644 North 328 377 37,000  Level Jacksonville Center
05:51PM 29.8692 -81.5561 North 328 377 37,000  Level Jacksonville Center
05:52PM 29.9608 -81.5475 North 328 377 37,000  Level Jacksonville Center
05:53PM 30.0506 -81.5367 North 328 377 37,000  Level Jacksonville Center
05:54PM 30.1422 -81.5283 North 328 377 37,000  Level Jacksonville Center
05:55PM 30.2342 -81.5172 North 328 377 37,000  Level Jacksonville Center
05:56PM 30.3278 -81.5089 North 333 383 37,000  Level Jacksonville Center
05:57PM 30.4194 -81.4906 10° North 333 383 37,000  Level Jacksonville Center
05:58PM 30.5111 -81.4653 13° North 333 383 37,000  Level Jacksonville Center
05:59PM 30.6028 -81.4419 12° North 333 383 37,000  Level Jacksonville Center
06:00PM 30.6922 -81.4189 12° North 333 383 37,000  Level Jacksonville Center
06:01PM 30.7881 -81.4031 North 333 383 37,000  Level Jacksonville Center
06:02PM 30.8800 -81.3919 North 333 383 37,000  Level Jacksonville Center
06:03PM 30.9717 -81.3831 North 333 383 37,000  Level Jacksonville Center
06:04PM 31.0656 -81.3719 North 333 383 37,000  Level Jacksonville Center
06:05PM 31.1572 -81.3631 North 333 383 37,000  Level Jacksonville Center
06:06PM 31.2511 -81.3544 North 333 383 37,000  Level Jacksonville Center
06:07PM 31.3406 -81.3406 North 328 377 37,000  Level Jacksonville Center
06:08PM 31.4386 -81.3292 North 328 377 37,000  Level Jacksonville Center
06:09PM 31.5344 -81.3181 North 328 377 37,000  Level Jacksonville Center
06:10PM 31.6181 -81.3092 North 328 377 37,000 -240 Level Jacksonville Center
06:11PM 31.7203 -81.3000 North 328 377 36,600 -720 Descending Jacksonville Center
06:12PM 31.8181 -81.2886 North 342 394 35,600 -840 Descending Jacksonville Center
06:13PM 31.9225 -81.2769 North 371 427 35,000 -300 Descending Jacksonville Center
06:14PM 32.0183 -81.2656 North 366 421 35,000  Level Jacksonville Center
06:15PM 32.1183 -81.2564 North 352 405 35,000  Level Jacksonville Center
06:16PM 32.2122 -81.2450 North 343 395 35,000  Level Jacksonville Center
06:17PM 32.3081 -81.2358 North 347 399 35,000  Level Jacksonville Center
06:18PM 32.4019 -81.2244 North 342 394 35,000  Level Jacksonville Center
06:19PM 32.5019 -81.2150 North 349 402 35,000  Level Jacksonville Center
06:20PM 32.5853 -81.2061 North 344 396 35,000  Level Jacksonville Center
06:21PM 32.6917 -81.1919 North 344 396 35,000  Level Jacksonville Center
06:22PM 32.7894 -81.1775 North 350 403 35,000  Level Jacksonville Center
06:23PM 32.8789 -81.1389 20° North 350 403 35,000  Level Jacksonville Center
06:24PM 32.9678 -81.0900 25° Northeast 350 403 35,000  Level Jacksonville Center
06:25PM 33.0589 -81.0386 25° Northeast 350 403 35,000  Level Jacksonville Center
06:26PM 33.1481 -80.9872 26° Northeast 355 409 35,000  Level Jacksonville Center
06:27PM 33.2369 -80.9381 25° Northeast 355 409 35,000  Level Jacksonville Center
06:28PM 33.3300 -80.8889 24° Northeast 355 409 35,000 -360 Level Jacksonville Center
06:29PM 33.4211 -80.8394 24° Northeast 355 409 34,400 -960 Descending Jacksonville Center
06:30PM 33.5161 -80.7825 27° Northeast 360 414 33,100 -1,260 Descending Jacksonville Center
06:31PM 33.6156 -80.7278 25° Northeast 370 426 31,900 -1,320 Descending Jacksonville Center
06:32PM 33.7147 -80.6728 25° Northeast 380 437 30,500 -1,260 Descending Jacksonville Center
06:33PM 33.8139 -80.6178 25° Northeast 385 443 29,400 -1,200 Descending Jacksonville Center
06:34PM 33.9131 -80.5628 25° Northeast 385 443 28,100 -1,200 Descending Jacksonville Center
06:35PM 34.0100 -80.5075 25° Northeast 385 443 27,100 -1,020 Descending Jacksonville Center
06:36PM 34.1092 -80.4497 26° Northeast 385 443 26,100 -1,260 Descending Jacksonville Center
06:37PM 34.2081 -80.3942 25° Northeast 380 437 24,600 -1,500 Descending Jacksonville Center
06:38PM 34.3050 -80.3386 25° Northeast 380 437 23,100 -840 Descending Jacksonville Center
06:39PM 34.4019 -80.2831 25° Northeast 380 437 23,000 -60 Descending Jacksonville Center
06:41PM 34.5889 -80.1733 26° Northeast 353 406 23,000  Level Washington Center
06:42PM 34.6719 -80.1275 24° Northeast 358 412 23,000  Level Washington Center
06:43PM 34.7639 -80.0744 25° Northeast 358 412 23,000  Level Washington Center
06:44PM 34.8439 -79.9978 38° Northeast 358 412 23,000  Level Washington Center
06:45PM 34.9156 -79.9181 42° Northeast 358 412 23,000 -660 Level Washington Center
06:46PM 34.9939 -79.8336 41° Northeast 353 406 21,700 -1,500 Descending Washington Center
06:47PM 35.0719 -79.7439 43° Northeast 368 423 20,100 -1,680 Descending Washington Center
06:48PM 35.1544 -79.6542 42° Northeast 380 437 18,400 -1,620 Descending Washington Center
06:49PM 35.2567 -79.5931 26° Northeast 385 443 17,000 -1,500 Descending Washington Center
06:50PM 35.3547 -79.5956 359° North 370 426 15,500 -1,440 Descending Washington Center
06:51PM 35.4689 -79.6061 356° North 370 426 14,100 -1,440 Descending Washington Center
06:53PM 35.5714 -79.6254 332° Northwest  Level FlightAware Approximate
07:00PM 36.0695 -79.9537 28° Northeast  Level FlightAware Approximate
07:01PM 36.1000 -79.9333 28° Northeast  Level FlightAware Approximate
07:02PM 36.1013 -79.9411 28° Northeast  Level Estimated
07:03PM 36.1000 -79.9333 28° Northeast  Level FlightAware Approximate
07:04PM 36.1013 -79.9411 28° Northeast  Level Estimated
07:05PM 36.1000 -79.9333 28° Northeast  Level FlightAware Approximate
07:06PM 36.1013 -79.9411 28° Northeast  Level Estimated
07:07PM 36.1000 -79.9333 28° Northeast  Level FlightAware Approximate
07:08PM 36.1013 -79.9411 28° Northeast  Level Estimated